Airfield :
LOGIN :

Register | Disclaimer

   EN    FR    IT 

 










Legend :    VFR   Marginal VFR   IFR   Intensive IFR   Very Intensive IFR
Visi :
Ceiling :
>= 8 km
>= 3000ft
5 to 8 km
1000 to 3000 ft
1500m to 5 km
500 to 1000 ft
800 to 1500m
200 to 500 ft
< 800m
< 200 ft
Symbols :   Thunderstorms  Fog  Heavy snow  Heavy precipitations  Wind > 20 kt
SIGMETs :     Misc.  Thunderstorms  Icing  Turbulence  Mountain Waves  Volcanic Ashes






- Airport Elevation : 364 ft
- IATA code : FRA


EDDF - Frankfurt Int.

CURRENT METAR :
  • 271450Z 11013KT 6000 -SNRA SCT006 BKN008 BKN022 02/01 Q0993 TEMPO 2000 -SN

EXPIRED METARs :
  • 271420Z 10012KT 7000 -SNRA SCT006 BKN010 BKN024 02/01 Q0994 TEMPO 2000 -SN BKN009
  • 271350Z 10010KT 7000 -SNRA FEW007 BKN012 BKN024 03/01 Q0995 TEMPO 3000 -SNRA BKN009
  • 271320Z 12009KT 100V170 8000 -SNRA FEW008 BKN012 BKN024 03/01 Q0996 TEMPO 3000 -SNRA BKN009
  • 271250Z 15009KT 120V180 8000 -SNRA FEW008 BKN012 BKN025 03/02 Q0997 TEMPO 3000 -SNRA BKN009
  • 271220Z 16010KT 140V200 9999 -RA FEW009 BKN014 BKN028 03/02 Q0998 NOSIG

TAF TAF EDDF
Valid from the 27 at 12:00 until the 28 at 18:00 UTC


271100Z 2712/2818 14010KT 9999 FEW013 BKN025
TEMPO 2712/2715 RA BKN013
BECMG 2714/2718 02011KT
TEMPO 2715/2721 4000 RASN BKN008
PROB40
TEMPO 2716/2720 35012G25KT 1400 SN OVC004
BECMG 2722/2801 25009KT SCT040



MET'MAP, your aeronautical weather chart ! - Copyright ORBIFLY December 2007 - Disclaimer

ORBIFLY MET'MAP TEAM :

Programming & Development : Alexandra Zaïnal
Concept & original design : Baudouin d'Aumeries
Assistance for programming : Marc-Olivier Méhu
Technical & hardware support : Manuel Goepfert

Contact : metmap@orbifly.com




SOURCES & CREDITS :

   NOAA